createdAt,value
2022-12-03T00:02:16.754Z,98717.22
2022-12-03T00:04:43.263Z,98704.88
2022-12-03T00:07:09.696Z,98709.38
2022-12-03T00:09:36.127Z,98712.31
2022-12-03T00:12:02.531Z,98705.34
2022-12-03T00:14:28.940Z,98709.06
2022-12-03T00:16:55.314Z,98712.78
2022-12-03T00:19:21.717Z,98712.56
2022-12-03T00:21:48.229Z,98710.22
2022-12-03T00:24:14.638Z,98717.78
2022-12-03T00:26:41.046Z,98716.25
2022-12-03T00:29:07.430Z,98720.06
2022-12-03T00:31:33.980Z,98721.25
2022-12-03T00:34:00.386Z,98723.09
2022-12-03T00:36:26.772Z,98721.25
2022-12-03T00:38:53.155Z,98717.25
2022-12-03T00:41:19.553Z,98716.00
2022-12-03T00:43:45.939Z,98715.50
2022-12-03T00:46:14.797Z,98722.16
2022-12-03T00:48:44.609Z,98720.28
2022-12-03T00:51:10.959Z,98712.25
2022-12-03T00:53:37.402Z,98719.25
2022-12-03T00:56:03.912Z,98729.94
2022-12-03T00:58:30.299Z,98718.66
2022-12-03T01:00:56.694Z,98716.56
2022-12-03T01:03:23.281Z,98720.06
2022-12-03T01:05:49.792Z,98721.66
2022-12-03T01:08:16.243Z,98713.41
2022-12-03T01:10:42.713Z,98722.03
2022-12-03T01:13:09.164Z,98731.44
2022-12-03T01:15:35.829Z,98727.13
2022-12-03T01:18:02.322Z,98732.81
2022-12-03T01:20:28.893Z,98727.25
2022-12-03T01:22:55.242Z,98729.69
2022-12-03T01:25:21.751Z,98728.88
2022-12-03T01:27:48.172Z,98718.97
2022-12-03T01:30:14.820Z,98723.25
2022-12-03T01:32:41.239Z,98719.78
2022-12-03T01:35:08.003Z,98730.00
2022-12-03T01:37:34.387Z,98730.59
2022-12-03T01:40:00.869Z,98725.44
2022-12-03T01:42:31.784Z,98730.00
2022-12-03T01:45:00.229Z,98725.44
2022-12-03T01:47:30.574Z,98719.28
2022-12-03T01:50:02.733Z,98730.34
2022-12-03T01:52:34.265Z,98723.38
2022-12-03T01:55:04.867Z,98723.38
2022-12-03T01:58:01.413Z,98736.50
2022-12-03T02:00:29.283Z,98730.34
2022-12-03T02:03:02.350Z,98728.72
2022-12-03T02:05:33.154Z,98731.63
2022-12-03T02:08:00.792Z,98730.81
2022-12-03T02:10:34.243Z,98728.72
2022-12-03T02:13:07.645Z,98723.38
2022-12-03T02:15:35.255Z,98725.00
2022-12-03T02:18:02.206Z,98730.34
2022-12-03T02:20:32.955Z,98730.34
2022-12-03T02:23:21.472Z,98728.47
2022-12-03T02:25:48.021Z,98725.81
2022-12-03T02:28:14.787Z,98726.63
2022-12-03T02:30:41.177Z,98724.66
2022-12-03T02:33:07.566Z,98725.44
2022-12-03T02:35:36.398Z,98718.47
2022-12-03T02:38:07.457Z,98711.75
2022-12-03T02:40:34.387Z,98716.03
2022-12-03T02:43:03.319Z,98719.28
2022-12-03T02:45:36.053Z,98723.84
2022-12-03T02:48:16.706Z,98729.19
2022-12-03T02:50:50.072Z,98723.84
2022-12-03T02:53:26.110Z,98731.28
2022-12-03T02:55:54.603Z,98728.06
2022-12-03T02:58:22.914Z,98729.19
2022-12-03T03:00:51.777Z,98726.25
2022-12-03T03:03:18.920Z,98728.72
2022-12-03T03:05:46.356Z,98726.63
2022-12-03T03:08:13.533Z,98730.34
2022-12-03T03:10:41.467Z,98730.34
2022-12-03T03:13:11.678Z,98726.25
2022-12-03T03:15:40.502Z,98734.09
2022-12-03T03:18:08.428Z,98722.56
2022-12-03T03:20:35.439Z,98723.38
2022-12-03T03:23:22.690Z,98728.22
2022-12-03T03:25:58.618Z,98725.81
2022-12-03T03:28:26.097Z,98712.41
2022-12-03T03:30:52.928Z,98723.94
2022-12-03T03:33:19.688Z,98722.06
2022-12-03T03:35:48.113Z,98724.75
2022-12-03T03:38:18.760Z,98714.28
2022-12-03T03:40:46.526Z,98708.94
2022-12-03T03:43:13.613Z,98708.94
2022-12-03T03:45:40.257Z,98723.94
2022-12-03T03:48:06.945Z,98724.75
2022-12-03T03:50:34.253Z,98727.19
2022-12-03T03:53:02.554Z,98712.97
2022-12-03T03:55:31.007Z,98714.59
2022-12-03T03:57:57.534Z,98711.13
2022-12-03T04:00:24.068Z,98717.28
2022-12-03T04:02:51.839Z,98710.06
2022-12-03T04:05:20.602Z,98714.16
2022-12-03T04:07:47.271Z,98710.66
2022-12-03T04:10:33.301Z,98711.22
2022-12-03T04:12:59.796Z,98703.44
2022-12-03T04:15:26.557Z,98701.81
2022-12-03T04:18:12.233Z,98705.06
2022-12-03T04:20:38.840Z,98690.84
2022-12-03T04:23:05.734Z,98701.00
2022-12-03T04:25:51.285Z,98697.97
2022-12-03T04:28:35.939Z,98696.59
2022-12-03T04:31:24.935Z,98705.69
2022-12-03T04:34:10.170Z,98708.81
2022-12-03T04:36:36.611Z,98707.19
2022-12-03T04:39:04.069Z,98701.28
2022-12-03T04:41:30.470Z,98699.41
2022-12-03T04:44:15.610Z,98698.38
2022-12-03T04:46:41.962Z,98695.44
2022-12-03T04:49:08.377Z,98694.97
2022-12-03T04:51:34.798Z,98698.22
2022-12-03T04:54:01.392Z,98704.94
2022-12-03T04:56:27.847Z,98702.03
2022-12-03T04:58:54.203Z,98702.63
2022-12-03T05:01:20.688Z,98696.22
2022-12-03T05:03:47.115Z,98698.88
2022-12-03T05:06:13.543Z,98699.34
2022-12-03T05:08:39.927Z,98694.00
2022-12-03T05:11:06.688Z,98696.47
2022-12-03T05:13:33.179Z,98687.38
2022-12-03T05:15:59.673Z,98691.41
2022-12-03T05:18:26.033Z,98687.69
2022-12-03T05:20:53.681Z,98686.88
2022-12-03T05:23:20.693Z,98691.75
2022-12-03T05:25:47.213Z,98688.84
2022-12-03T05:28:13.829Z,98687.78
2022-12-03T05:30:40.511Z,98686.16
2022-12-03T05:33:06.979Z,98688.03
2022-12-03T05:35:33.430Z,98681.88
2022-12-03T05:37:59.882Z,98678.94
2022-12-03T05:40:26.374Z,98676.50
2022-12-03T05:42:57.033Z,98681.06
2022-12-03T05:45:35.334Z,98672.22
2022-12-03T05:48:02.919Z,98678.59
2022-12-03T05:50:32.984Z,98668.38
2022-12-03T05:52:59.762Z,98674.88
2022-12-03T05:55:27.534Z,98677.56
2022-12-03T05:57:54.216Z,98669.53
2022-12-03T06:00:26.282Z,98674.88
2022-12-03T06:02:53.261Z,98674.66
2022-12-03T06:05:20.811Z,98675.44
2022-12-03T06:07:49.251Z,98671.72
2022-12-03T06:10:18.802Z,98674.41
2022-12-03T06:12:45.146Z,98678.94
2022-12-03T06:15:12.208Z,98683.00
2022-12-03T06:17:38.590Z,98681.38
2022-12-03T06:20:05.890Z,98679.75
2022-12-03T06:22:32.365Z,98672.78
2022-12-03T06:25:03.546Z,98673.59
2022-12-03T06:27:32.917Z,98679.44
2022-12-03T06:29:59.314Z,98696.06
2022-12-03T06:32:25.700Z,98685.34
2022-12-03T06:34:52.241Z,98688.84
2022-12-03T06:37:19.012Z,98686.41
2022-12-03T06:39:45.431Z,98696.31
2022-12-03T06:42:11.847Z,98696.31
2022-12-03T06:44:38.298Z,98695.00
2022-12-03T06:47:04.720Z,98699.56
2022-12-03T06:49:31.166Z,98709.78
2022-12-03T06:51:57.543Z,98707.69
2022-12-03T06:54:23.971Z,98704.19
2022-12-03T06:56:50.427Z,98713.03
2022-12-03T06:59:16.895Z,98710.81
2022-12-03T07:01:43.334Z,98715.13
2022-12-03T07:04:09.971Z,98704.41
2022-12-03T07:06:36.437Z,98707.09
2022-12-03T07:09:02.961Z,98708.50
2022-12-03T07:11:31.966Z,98703.94
2022-12-03T07:14:05.440Z,98696.72
2022-12-03T07:16:33.067Z,98686.00
2022-12-03T07:18:59.573Z,98682.53
2022-12-03T07:21:26.014Z,98686.81
2022-12-03T07:23:52.452Z,98684.72
2022-12-03T07:26:19.323Z,98686.34
2022-12-03T07:28:46.715Z,98693.09
2022-12-03T07:31:13.134Z,98698.19
2022-12-03T07:33:39.656Z,98695.53
2022-12-03T07:36:06.352Z,98691.22
2022-12-03T07:38:32.772Z,98698.19
2022-12-03T07:40:59.175Z,98697.13
2022-12-03T07:43:25.707Z,98685.63
2022-12-03T07:45:52.214Z,98680.25
2022-12-03T07:48:18.720Z,98687.00
2022-12-03T07:50:45.202Z,98691.31
2022-12-03T07:53:11.570Z,98686.28
2022-12-03T07:55:37.984Z,98686.03
2022-12-03T07:58:04.455Z,98678.00
2022-12-03T08:00:30.912Z,98681.72
2022-12-03T08:02:57.576Z,98687.09
2022-12-03T08:05:24.064Z,98676.13
2022-12-03T08:07:50.486Z,98683.34
2022-12-03T08:10:17.045Z,98685.81
2022-12-03T08:12:43.400Z,98682.06
2022-12-03T08:15:10.143Z,98685.31
2022-12-03T08:17:39.043Z,98683.69
2022-12-03T08:20:16.903Z,98688.25
2022-12-03T08:22:45.241Z,98694.66
2022-12-03T08:25:28.187Z,98690.31
2022-12-03T08:28:00.145Z,98703.50
2022-12-03T08:30:26.602Z,98694.88
2022-12-03T08:32:53.876Z,98689.28
2022-12-03T08:35:24.881Z,98692.78
2022-12-03T08:38:12.046Z,98692.28
2022-12-03T08:40:45.759Z,98692.03
2022-12-03T08:43:26.219Z,98697.41
2022-12-03T08:45:56.782Z,98695.53
2022-12-03T08:48:33.755Z,98692.28
2022-12-03T08:51:04.224Z,98688.25
2022-12-03T08:53:32.575Z,98689.84
2022-12-03T08:56:23.940Z,98687.75
2022-12-03T08:58:57.688Z,98682.38
2022-12-03T09:01:44.045Z,98682.63
2022-12-03T09:04:20.966Z,98691.47
2022-12-03T09:06:47.466Z,98687.19
2022-12-03T09:09:13.853Z,98690.66
2022-12-03T09:11:40.301Z,98690.31
2022-12-03T09:14:06.738Z,98690.81
2022-12-03T09:16:33.232Z,98692.94
2022-12-03T09:18:59.869Z,98699.81
2022-12-03T09:21:26.256Z,98692.84
2022-12-03T09:23:52.667Z,98698.75
2022-12-03T09:26:19.147Z,98700.06
2022-12-03T09:28:48.143Z,98698.44
2022-12-03T09:31:15.697Z,98700.63
2022-12-03T09:33:42.895Z,98695.03
2022-12-03T09:36:09.479Z,98688.03
2022-12-03T09:38:36.019Z,98692.13
2022-12-03T09:41:02.482Z,98682.44
2022-12-03T09:44:02.654Z,98680.59
2022-12-03T09:46:20.822Z,98678.94
2022-12-03T09:48:47.486Z,98670.69
2022-12-03T09:51:14.471Z,98677.44
2022-12-03T09:53:41.643Z,98667.53
2022-12-03T09:56:18.047Z,98664.84
2022-12-03T09:58:44.442Z,98664.03
2022-12-03T10:01:14.978Z,98658.19
2022-12-03T10:03:50.569Z,98660.38
2022-12-03T10:06:20.185Z,98667.94
2022-12-03T10:08:49.149Z,98670.13
2022-12-03T10:11:18.140Z,98670.22
2022-12-03T10:13:45.624Z,98675.00
2022-12-03T10:16:15.399Z,98676.06
2022-12-03T10:18:47.277Z,98678.66
2022-12-03T10:21:25.810Z,98693.09
2022-12-03T10:24:17.065Z,98670.03
2022-12-03T10:26:45.331Z,98665.25
2022-12-03T10:29:17.674Z,98656.66
2022-12-03T10:31:48.950Z,98666.81
2022-12-03T10:34:24.232Z,98667.06
2022-12-03T10:37:09.523Z,98656.34
2022-12-03T10:39:56.273Z,98650.38
2022-12-03T10:42:23.536Z,98658.19
2022-12-03T10:44:53.815Z,98658.78
2022-12-03T10:47:22.567Z,98660.63
2022-12-03T10:50:02.447Z,98658.19
2022-12-03T10:52:29.399Z,98647.47
2022-12-03T10:54:56.268Z,98644.22
2022-12-03T10:57:23.784Z,98640.47
2022-12-03T10:59:50.235Z,98635.94
2022-12-03T11:02:22.003Z,98631.06
2022-12-03T11:04:49.274Z,98627.50
2022-12-03T11:07:19.083Z,98619.47
2022-12-03T11:09:47.819Z,98614.09
2022-12-03T11:12:19.155Z,98622.69
2022-12-03T11:14:52.189Z,98614.91
2022-12-03T11:17:43.875Z,98620.03
2022-12-03T11:20:25.640Z,98617.59
2022-12-03T11:22:56.794Z,98613.03
2022-12-03T11:25:26.239Z,98611.94
2022-12-03T11:28:11.514Z,98605.97
2022-12-03T11:31:01.147Z,98604.34
2022-12-03T11:33:29.184Z,98605.50
2022-12-03T11:36:05.109Z,98604.94
2022-12-03T11:38:37.724Z,98607.13
2022-12-03T11:41:25.945Z,98607.38
2022-12-03T11:43:52.345Z,98603.41
2022-12-03T11:46:24.703Z,98602.91
2022-12-03T11:48:53.949Z,98597.78
2022-12-03T11:51:23.312Z,98597.47
2022-12-03T11:53:51.232Z,98593.41
2022-12-03T11:56:24.003Z,98584.56
2022-12-03T11:59:01.750Z,98575.50
2022-12-03T12:01:41.813Z,98573.94
2022-12-03T12:04:27.626Z,98578.81
2022-12-03T12:06:54.078Z,98576.13
2022-12-03T12:09:50.582Z,98572.16
2022-12-03T12:12:32.132Z,98575.88
2022-12-03T12:14:59.172Z,98577.75
2022-12-03T12:17:36.435Z,98565.63
2022-12-03T12:20:26.189Z,98569.63
2022-12-03T12:22:54.303Z,98566.16
2022-12-03T12:25:29.761Z,98561.59
2022-12-03T12:27:57.474Z,98550.06
2022-12-03T12:30:24.203Z,98558.09
2022-12-03T12:32:52.987Z,98555.44
2022-12-03T12:35:24.434Z,98546.75
2022-12-03T12:38:00.102Z,98553.88
2022-12-03T12:40:32.168Z,98556.56
2022-12-03T12:43:04.311Z,98548.63
2022-12-03T12:45:36.573Z,98542.22
2022-12-03T12:48:25.015Z,98535.22
2022-12-03T12:51:00.647Z,98536.28
2022-12-03T12:53:37.226Z,98527.19
2022-12-03T12:56:22.908Z,98527.75
2022-12-03T12:59:09.460Z,98526.69
2022-12-03T13:01:36.309Z,98523.47
2022-12-03T13:04:20.387Z,98523.47
2022-12-03T13:06:53.572Z,98514.88
2022-12-03T13:09:32.795Z,98518.56
2022-12-03T13:12:03.801Z,98520.22
2022-12-03T13:14:34.588Z,98521.03
2022-12-03T13:17:10.843Z,98521.84
2022-12-03T13:19:47.614Z,98507.06
2022-12-03T13:22:19.453Z,98511.59
2022-12-03T13:24:50.600Z,98512.19
2022-12-03T13:27:19.702Z,98512.19
2022-12-03T13:29:49.600Z,98521.25
2022-12-03T13:32:20.520Z,98517.53
2022-12-03T13:34:47.535Z,98508.91
2022-12-03T13:37:23.139Z,98517.47
2022-12-03T13:39:52.156Z,98515.84
2022-12-03T13:42:46.426Z,98511.28
2022-12-03T13:45:15.549Z,98501.13
2022-12-03T13:47:44.786Z,98508.38
2022-12-03T13:50:40.849Z,98505.59
2022-12-03T13:53:27.880Z,98510.97
2022-12-03T13:56:20.491Z,98508.78
2022-12-03T13:58:46.872Z,98513.59
2022-12-03T14:01:13.375Z,98519.97
2022-12-03T14:03:39.821Z,98514.59
2022-12-03T14:06:06.517Z,98511.13
2022-12-03T14:08:32.935Z,98511.94
2022-12-03T14:11:00.878Z,98506.56
2022-12-03T14:13:28.196Z,98504.97
2022-12-03T14:15:55.188Z,98508.69
2022-12-03T14:18:21.803Z,98503.84
2022-12-03T14:20:48.291Z,98505.94
2022-12-03T14:23:15.067Z,98504.31
2022-12-03T14:25:43.850Z,98507.50
2022-12-03T14:28:10.588Z,98508.56
2022-12-03T14:30:37.170Z,98515.19
2022-12-03T14:33:04.036Z,98512.75
2022-12-03T14:35:30.413Z,98507.41
2022-12-03T14:37:56.782Z,98513.31
2022-12-03T14:40:23.250Z,98521.34
2022-12-03T14:42:49.683Z,98516.50
2022-12-03T14:45:16.252Z,98520.78
2022-12-03T14:47:42.654Z,98526.38
2022-12-03T14:50:13.997Z,98530.94
2022-12-03T14:52:40.750Z,98534.06
2022-12-03T14:55:07.567Z,98533.16
2022-12-03T14:57:33.930Z,98534.47
2022-12-03T15:00:00.395Z,98534.47
2022-12-03T15:02:26.907Z,98531.25
2022-12-03T15:04:53.380Z,98538.22
2022-12-03T15:07:34.981Z,98530.75
2022-12-03T15:10:01.500Z,98523.78
2022-12-03T15:12:27.941Z,98534.22
2022-12-03T15:14:54.648Z,98527.50
2022-12-03T15:17:29.459Z,98524.59
2022-12-03T15:19:57.542Z,98526.44
2022-12-03T15:22:23.983Z,98520.53
2022-12-03T15:24:50.409Z,98512.75
2022-12-03T15:27:16.855Z,98519.72
2022-12-03T15:29:43.302Z,98515.66
2022-12-03T15:32:09.755Z,98510.31
2022-12-03T15:34:36.095Z,98520.19
2022-12-03T15:37:02.656Z,98521.81
2022-12-03T15:39:29.644Z,98528.72
2022-12-03T15:41:56.159Z,98521.50
2022-12-03T15:44:22.556Z,98525.22
2022-12-03T15:46:49.060Z,98522.56
2022-12-03T15:49:15.463Z,98522.56
2022-12-03T15:51:41.889Z,98524.63
2022-12-03T15:54:08.576Z,98521.97
2022-12-03T15:56:37.618Z,98519.53
2022-12-03T15:59:04.659Z,98520.84
2022-12-03T16:01:31.214Z,98517.91
2022-12-03T16:03:57.863Z,98522.47
2022-12-03T16:06:24.274Z,98521.91
2022-12-03T16:08:50.686Z,98518.16
2022-12-03T16:11:17.194Z,98518.41
2022-12-03T16:13:43.595Z,98511.41
2022-12-03T16:16:10.108Z,98518.06
2022-12-03T16:18:36.653Z,98509.47
2022-12-03T16:21:03.020Z,98507.88
2022-12-03T16:23:29.446Z,98519.03
2022-12-03T16:25:55.916Z,98523.09
2022-12-03T16:28:22.395Z,98512.41
2022-12-03T16:30:48.880Z,98518.78
2022-12-03T16:33:15.476Z,98514.97
2022-12-03T16:35:41.938Z,98521.13
2022-12-03T16:38:08.365Z,98518.72
2022-12-03T16:40:34.836Z,98514.16
2022-12-03T16:43:03.276Z,98518.72
2022-12-03T16:45:29.749Z,98518.47
2022-12-03T16:47:56.231Z,98516.25
2022-12-03T16:50:29.525Z,98522.09
2022-12-03T16:52:57.125Z,98523.97
2022-12-03T16:55:23.664Z,98517.31
2022-12-03T16:57:50.020Z,98520.78
2022-12-03T17:00:17.123Z,98521.59
2022-12-03T17:02:43.620Z,98518.72
2022-12-03T17:05:10.107Z,98514.41
2022-12-03T17:07:36.526Z,98503.47
2022-12-03T17:10:03.387Z,98503.78
2022-12-03T17:12:37.614Z,98497.16
2022-12-03T17:15:09.355Z,98501.34
2022-12-03T17:17:35.985Z,98491.72
2022-12-03T17:20:02.521Z,98487.88
2022-12-03T17:22:29.051Z,98489.50
2022-12-03T17:24:55.597Z,98480.09
2022-12-03T17:27:24.701Z,98482.22
2022-12-03T17:29:51.308Z,98488.94
2022-12-03T17:32:17.875Z,98490.81
2022-12-03T17:34:44.374Z,98486.75
2022-12-03T17:37:10.744Z,98483.03
2022-12-03T17:39:37.135Z,98476.63
2022-12-03T17:42:03.698Z,98476.88
2022-12-03T17:44:30.036Z,98484.66
2022-12-03T17:46:56.485Z,98487.06
2022-12-03T17:49:26.898Z,98478.25
2022-12-03T17:51:56.766Z,98482.78
2022-12-03T17:54:23.216Z,98486.75
2022-12-03T17:56:49.637Z,98489.91
2022-12-03T17:59:16.097Z,98483.66
2022-12-03T18:01:43.640Z,98481.81
2022-12-03T18:04:10.387Z,98473.44
2022-12-03T18:06:37.177Z,98484.94
2022-12-03T18:09:04.623Z,98475.88
2022-12-03T18:11:31.675Z,98479.59
2022-12-03T18:13:58.658Z,98475.06
2022-12-03T18:16:25.101Z,98466.78
2022-12-03T18:18:56.319Z,98476.69
2022-12-03T18:21:24.443Z,98474.25
2022-12-03T18:23:50.971Z,98480.66
2022-12-03T18:26:17.367Z,98473.44
2022-12-03T18:28:43.798Z,98477.75
2022-12-03T18:31:14.475Z,98472.13
2022-12-03T18:33:41.017Z,98466.78
2022-12-03T18:36:16.048Z,98464.94
2022-12-03T18:38:42.880Z,98464.13
2022-12-03T18:41:09.344Z,98465.19
2022-12-03T18:43:36.102Z,98465.75
2022-12-03T18:46:04.506Z,98463.09
2022-12-03T18:48:30.914Z,98468.19
2022-12-03T18:50:57.362Z,98464.94
2022-12-03T18:53:23.768Z,98461.44
2022-12-03T18:55:50.279Z,98459.25
2022-12-03T18:58:16.647Z,98459.75
2022-12-03T19:00:43.264Z,98460.06
2022-12-03T19:03:10.104Z,98453.34
2022-12-03T19:05:36.570Z,98460.06
2022-12-03T19:08:03.686Z,98450.44
2022-12-03T19:10:30.420Z,98462.75
2022-12-03T19:12:57.366Z,98457.41
2022-12-03T19:15:24.136Z,98463.31
2022-12-03T19:17:51.114Z,98454.47
2022-12-03T19:20:17.673Z,98451.75
2022-12-03T19:22:44.098Z,98454.41
2022-12-03T19:25:10.734Z,98460.22
2022-12-03T19:27:37.186Z,98461.84
2022-12-03T19:30:05.217Z,98462.44
2022-12-03T19:32:31.664Z,98449.28
2022-12-03T19:34:58.242Z,98448.47
2022-12-03T19:37:24.837Z,98452.19
2022-12-03T19:39:54.541Z,98445.78
2022-12-03T19:42:21.293Z,98454.31
2022-12-03T19:44:47.677Z,98444.09
2022-12-03T19:47:14.106Z,98441.19
2022-12-03T19:49:40.552Z,98440.69
2022-12-03T19:52:06.943Z,98442.56
2022-12-03T19:54:33.419Z,98442.00
2022-12-03T19:56:59.925Z,98441.19
2022-12-03T19:59:26.371Z,98447.34
2022-12-03T20:01:53.051Z,98458.03
2022-12-03T20:04:32.101Z,98444.09
2022-12-03T20:08:09.617Z,98441.19
2022-12-03T20:10:58.311Z,98450.59
2022-12-03T20:14:18.868Z,98459.16
2022-12-03T20:16:52.869Z,98456.75
2022-12-03T20:19:32.174Z,98455.59
2022-12-03T20:22:07.750Z,98437.13
2022-12-03T20:24:49.666Z,98441.66
2022-12-03T20:27:23.792Z,98437.13
2022-12-03T20:30:57.392Z,98439.69
2022-12-03T20:33:49.919Z,98447.16
2022-12-03T20:37:08.784Z,98446.09
2022-12-03T20:42:33.760Z,98439.69
2022-12-03T20:45:20.194Z,98437.84
2022-12-03T20:47:58.001Z,98427.38
2022-12-03T20:50:43.394Z,98429.00
2022-12-03T20:53:27.433Z,98422.94
2022-12-03T20:56:15.387Z,98422.69
2022-12-03T20:59:03.227Z,98423.75
2022-12-03T21:01:36.731Z,98420.03
2022-12-03T21:04:34.270Z,98422.69
2022-12-03T21:07:17.064Z,98415.72
2022-12-03T21:10:08.216Z,98421.31
2022-12-03T21:12:42.666Z,98419.94
2022-12-03T21:15:21.101Z,98412.50
2022-12-03T21:17:51.698Z,98410.88
2022-12-03T21:20:33.208Z,98410.88
2022-12-03T21:23:09.637Z,98414.13
2022-12-03T21:25:53.147Z,98412.50
2022-12-03T21:28:56.525Z,98419.94
2022-12-03T21:31:46.661Z,98418.31
2022-12-03T21:34:27.347Z,98405.78
2022-12-03T21:38:11.335Z,98403.91
2022-12-03T21:41:13.744Z,98407.97
2022-12-03T21:43:28.512Z,98405.03
2022-12-03T21:47:09.407Z,98402.91
2022-12-03T21:52:06.780Z,98401.31
2022-12-03T21:57:42.626Z,98401.09
2022-12-03T22:00:16.797Z,98399.22
2022-12-03T22:02:43.658Z,98398.41
2022-12-03T22:05:11.151Z,98391.41
2022-12-03T22:07:39.669Z,98389.00
2022-12-03T22:10:09.472Z,98399.38
2022-12-03T22:12:36.169Z,98396.91
2022-12-03T22:15:03.612Z,98392.97
2022-12-03T22:17:30.254Z,98393.53
2022-12-03T22:19:57.092Z,98393.06
2022-12-03T22:22:23.592Z,98395.50
2022-12-03T22:24:50.002Z,98391.75
2022-12-03T22:27:16.456Z,98389.34
2022-12-03T22:29:42.901Z,98392.81
2022-12-03T22:32:09.388Z,98393.88
2022-12-03T22:34:35.910Z,98384.81
2022-12-03T22:37:02.260Z,98378.41
2022-12-03T22:39:28.586Z,98381.88
2022-12-03T22:41:55.079Z,98373.59
2022-12-03T22:44:21.576Z,98385.34
2022-12-03T22:46:48.005Z,98382.69
2022-12-03T22:49:14.536Z,98382.69
2022-12-03T22:51:44.403Z,98383.75
2022-12-03T22:54:11.430Z,98373.06
2022-12-03T22:56:38.525Z,98370.38
2022-12-03T22:59:05.589Z,98367.69
2022-12-03T23:01:34.278Z,98365.03
2022-12-03T23:04:01.238Z,98354.34
2022-12-03T23:06:30.373Z,98358.88
2022-12-03T23:08:58.505Z,98353.28
2022-12-03T23:11:25.725Z,98352.22
2022-12-03T23:13:52.535Z,98348.50
2022-12-03T23:16:22.922Z,98344.44
2022-12-03T23:18:50.456Z,98355.66
2022-12-03T23:21:21.550Z,98353.19
2022-12-03T23:23:50.431Z,98349.44
2022-12-03T23:26:17.571Z,98348.44
2022-12-03T23:28:45.891Z,98343.31
2022-12-03T23:31:24.194Z,98339.81
2022-12-03T23:33:52.128Z,98349.44
2022-12-03T23:36:19.545Z,98351.09
2022-12-03T23:38:46.371Z,98344.09
2022-12-03T23:41:15.383Z,98344.09
2022-12-03T23:43:41.902Z,98329.72
2022-12-03T23:46:11.659Z,98335.06
2022-12-03T23:48:39.218Z,98347.38
2022-12-03T23:51:12.218Z,98347.38
2022-12-03T23:53:39.764Z,98338.28
2022-12-03T23:56:07.523Z,98352.72
2022-12-03T23:58:34.570Z,98340.97
